Time;durP1;ratioP1;P1;durP2;ratioP2;P2;SDS_P1;SDS_P2;PMS_P1;PMS_P2;Temp;Humidity;BMP_temperature;BMP_pressure;BME280_temperature;BME280_humidity;BME280_pressure;Samples;Min_cycle;Max_cycle;Signal;HPM_P1;HPM_P2
2021/06/10 00:00:29;;;;;;;4.82;4.30;;;18.00;80.50;;;;;;2040419;29;20035;-70
2021/06/10 00:01:30;;;;;;;4.80;4.30;;;18.00;81.30;;;;;;2033498;29;20028;-70
2021/06/10 00:02:30;;;;;;;5.82;4.30;;;18.00;80.60;;;;;;2025116;29;20119;-71
2021/06/10 00:03:31;;;;;;;4.93;4.43;;;18.00;80.90;;;;;;2033532;29;20036;-71
2021/06/10 00:04:32;;;;;;;5.18;4.18;;;18.00;80.80;;;;;;2031903;29;20735;-71
2021/06/10 00:05:33;;;;;;;6.05;4.40;;;18.00;80.80;;;;;;2041013;29;20075;-71
2021/06/10 00:06:33;;;;;;;5.50;4.05;;;18.00;81.50;;;;;;2040992;29;20079;-70
2021/06/10 00:07:34;;;;;;;6.18;4.32;;;18.00;80.70;;;;;;2040740;29;20039;-71
2021/06/10 00:08:35;;;;;;;4.53;4.13;;;17.90;80.70;;;;;;2032425;29;20032;-70
2021/06/10 00:09:36;;;;;;;4.95;4.10;;;17.90;80.90;;;;;;2032334;29;20521;-71
2021/06/10 00:10:39;;;;;;;4.85;4.03;;;17.90;80.90;;;;;;2040507;29;20024;-71
2021/06/10 00:11:40;;;;;;;4.88;4.22;;;17.90;80.90;;;;;;2024678;29;20028;-71
2021/06/10 00:12:42;;;;;;;4.93;4.43;;;17.90;81.00;;;;;;2032138;29;20496;-71
2021/06/10 00:13:42;;;;;;;6.25;4.68;;;17.90;81.00;;;;;;2038206;29;20028;-70
2021/06/10 00:14:45;;;;;;;6.25;4.47;;;17.90;81.20;;;;;;2031140;29;20058;-71
2021/06/10 00:15:46;;;;;;;5.05;4.32;;;17.80;81.20;;;;;;2041714;29;20040;-71
2021/06/10 00:16:46;;;;;;;6.43;4.13;;;17.80;81.40;;;;;;2031886;29;20028;-71
2021/06/10 00:17:47;;;;;;;8.40;4.50;;;17.80;81.50;;;;;;2032003;29;20134;-71
2021/06/10 00:18:51;;;;;;;4.75;4.07;;;17.80;81.80;;;;;;2039778;29;20027;-70
2021/06/10 00:19:52;;;;;;;4.80;4.18;;;17.70;81.70;;;;;;2039794;29;20027;-70
2021/06/10 00:20:52;;;;;;;5.53;4.22;;;17.70;82.00;;;;;;2040366;29;20034;-71
2021/06/10 00:21:53;;;;;;;4.47;4.07;;;17.70;82.00;;;;;;2040062;29;20136;-71
2021/06/10 00:22:55;;;;;;;6.15;4.10;;;17.70;82.00;;;;;;2047616;29;20031;-71
2021/06/10 00:23:56;;;;;;;4.72;4.28;;;17.60;81.90;;;;;;2040454;29;20038;-70
2021/06/10 00:24:56;;;;;;;4.55;4.15;;;17.60;81.90;;;;;;2031065;29;20098;-70
2021/06/10 00:25:57;;;;;;;4.32;3.90;;;17.60;82.90;;;;;;2028306;29;20118;-70
2021/06/10 00:26:58;;;;;;;4.50;4.10;;;17.60;82.10;;;;;;2040449;29;20083;-70
2021/06/10 00:27:59;;;;;;;4.30;3.90;;;17.60;81.90;;;;;;2039736;29;20063;-70
2021/06/10 00:29:00;;;;;;;4.43;4.03;;;17.60;82.00;;;;;;2039605;29;20075;-71
2021/06/10 00:30:01;;;;;;;4.60;4.20;;;17.60;82.10;;;;;;2039821;29;20127;-71
2021/06/10 00:31:03;;;;;;;4.80;4.32;;;17.60;82.10;;;;;;2039904;29;20039;-71
2021/06/10 00:32:04;;;;;;;5.40;4.03;;;17.50;82.00;;;;;;2040617;29;20127;-71
2021/06/10 00:33:05;;;;;;;4.68;4.25;;;17.50;82.00;;;;;;2040512;29;20030;-71
2021/06/10 00:34:06;;;;;;;4.68;4.07;;;17.50;82.00;;;;;;2039888;29;20123;-71
2021/06/10 00:35:07;;;;;;;5.25;3.92;;;17.50;81.80;;;;;;2039536;29;20450;-71
2021/06/10 00:36:08;;;;;;;5.75;4.13;;;17.50;81.80;;;;;;2040508;29;20139;-70
2021/06/10 00:37:13;;;;;;;5.13;4.10;;;17.50;81.90;;;;;;2040396;29;20391;-71
2021/06/10 00:38:13;;;;;;;5.93;4.50;;;17.50;82.00;;;;;;2039795;29;20055;-70
2021/06/10 00:39:14;;;;;;;5.45;4.18;;;17.40;82.00;;;;;;2039815;29;20034;-71
2021/06/10 00:40:15;;;;;;;5.28;4.15;;;17.50;82.10;;;;;;2047642;29;20356;-71
2021/06/10 00:41:16;;;;;;;4.65;4.25;;;17.40;81.90;;;;;;2029409;29;20043;-71
2021/06/10 00:42:17;;;;;;;5.57;4.28;;;17.40;81.80;;;;;;2024065;29;20480;-71
2021/06/10 00:43:18;;;;;;;5.43;4.38;;;17.40;81.90;;;;;;2039656;29;20059;-71
2021/06/10 00:44:19;;;;;;;4.82;4.18;;;17.40;82.00;;;;;;2039382;29;20024;-71
2021/06/10 00:45:21;;;;;;;4.90;4.22;;;17.40;82.10;;;;;;2041859;29;20509;-71
2021/06/10 00:46:22;;;;;;;4.30;3.90;;;17.30;82.20;;;;;;2036159;29;20500;-71
2021/06/10 00:47:22;;;;;;;4.70;4.15;;;17.30;82.20;;;;;;2031962;29;20092;-71
2021/06/10 00:48:23;;;;;;;5.90;4.28;;;17.30;82.30;;;;;;2031824;29;20024;-70
2021/06/10 00:49:27;;;;;;;5.15;4.10;;;17.30;82.50;;;;;;2027903;29;20032;-71
2021/06/10 00:50:42;;;;;;;4.53;4.10;;;17.30;82.40;;;;;;2031760;29;20035;-71
2021/06/10 00:51:45;;;;;;;4.40;3.92;;;17.30;82.60;;;;;;2022111;29;20021;-71
2021/06/10 00:52:47;;;;;;;5.88;4.13;;;17.30;82.60;;;;;;2030839;29;20031;-71
2021/06/10 00:53:48;;;;;;;5.20;4.25;;;17.30;82.70;;;;;;2032005;29;20070;-71
2021/06/10 00:54:49;;;;;;;5.43;4.28;;;17.20;82.60;;;;;;2031027;29;20039;-70
2021/06/10 00:55:52;;;;;;;6.95;4.60;;;17.30;82.80;;;;;;2032022;29;20400;-70
2021/06/10 00:56:52;;;;;;;5.68;4.50;;;17.30;83.50;;;;;;2031659;29;20524;-70
2021/06/10 00:57:54;;;;;;;5.68;4.78;;;17.30;82.80;;;;;;2039219;29;20164;-70
2021/06/10 00:58:54;;;;;;;4.85;4.43;;;17.30;82.70;;;;;;2040117;29;20631;-70
2021/06/10 00:59:55;;;;;;;4.80;4.30;;;17.20;82.70;;;;;;2031935;29;20036;-69
2021/06/10 01:00:56;;;;;;;5.32;4.63;;;17.20;82.80;;;;;;2040507;29;20079;-70
2021/06/10 01:01:57;;;;;;;5.28;4.18;;;17.20;82.80;;;;;;2039721;29;20046;-70
2021/06/10 01:02:57;;;;;;;5.40;4.30;;;17.10;82.80;;;;;;2031733;29;20510;-69
2021/06/10 01:03:59;;;;;;;4.72;4.18;;;17.10;82.90;;;;;;2016359;29;20029;-69
2021/06/10 01:05:00;;;;;;;5.20;4.50;;;17.10;82.90;;;;;;2015397;29;20037;-69
2021/06/10 01:06:06;;;;;;;5.05;4.45;;;17.10;83.10;;;;;;2023746;29;20801;-70
2021/06/10 01:07:42;;;;;;;4.40;4.00;;;17.10;83.10;;;;;;2039731;29;20031;-70
2021/06/10 01:08:56;;;;;;;4.70;4.18;;;17.10;83.00;;;;;;2035796;29;20032;-71
2021/06/10 01:10:03;;;;;;;5.35;4.40;;;17.10;82.90;;;;;;2040406;29;20070;-70
2021/06/10 01:11:25;;;;;;;5.97;4.20;;;17.00;82.80;;;;;;2040068;29;20024;-70
2021/06/10 01:12:33;;;;;;;4.55;4.10;;;17.00;82.80;;;;;;2043310;29;20074;-70
2021/06/10 01:13:51;;;;;;;5.10;4.32;;;17.00;82.90;;;;;;2039524;29;20024;-70
2021/06/10 01:15:08;;;;;;;4.60;4.10;;;17.00;83.00;;;;;;2041027;28;20036;-71
2021/06/10 01:16:14;;;;;;;5.88;4.10;;;17.00;83.00;;;;;;2031708;29;20043;-70
2021/06/10 01:17:15;;;;;;;4.55;4.15;;;16.90;82.90;;;;;;2032299;29;20047;-71
2021/06/10 01:18:17;;;;;;;5.07;4.32;;;16.90;82.90;;;;;;2039699;29;20028;-70
2021/06/10 01:19:36;;;;;;;4.93;4.30;;;16.90;82.90;;;;;;2039254;29;20032;-70
2021/06/10 01:20:42;;;;;;;5.60;4.28;;;16.90;83.10;;;;;;2031442;29;20032;-70
2021/06/10 01:21:44;;;;;;;4.55;4.10;;;16.90;83.20;;;;;;2024250;29;20024;-70
2021/06/10 01:22:57;;;;;;;4.55;4.00;;;16.90;83.20;;;;;;2023992;29;20119;-70
2021/06/10 01:24:23;;;;;;;6.50;4.30;;;16.90;83.20;;;;;;2025377;29;20036;-71
2021/06/10 01:25:44;;;;;;;5.38;4.20;;;16.90;83.10;;;;;;2034060;29;20028;-70
2021/06/10 01:27:21;;;;;;;5.00;4.05;;;16.80;83.30;;;;;;2039533;29;20075;-70
2021/06/10 01:28:27;;;;;;;4.93;4.40;;;16.80;83.40;;;;;;2039660;29;20024;-70
2021/06/10 01:29:29;;;;;;;4.68;4.13;;;16.80;83.50;;;;;;2040145;29;20027;-70
2021/06/10 01:30:35;;;;;;;4.45;4.05;;;16.70;83.80;;;;;;2039279;29;20028;-70
2021/06/10 01:31:36;;;;;;;4.90;4.05;;;16.80;83.90;;;;;;2039157;29;20031;-70
2021/06/10 01:32:40;;;;;;;5.45;4.10;;;16.70;83.80;;;;;;2023982;29;20040;-70
2021/06/10 01:33:46;;;;;;;6.35;4.47;;;16.80;84.00;;;;;;2032419;29;20119;-71
2021/06/10 01:34:48;;;;;;;5.68;4.45;;;16.70;83.90;;;;;;2038589;29;20055;-70
2021/06/10 01:35:56;;;;;;;5.85;4.30;;;16.70;84.00;;;;;;2039725;29;20028;-70
2021/06/10 01:36:57;;;;;;;6.50;4.50;;;16.70;83.80;;;;;;2040172;29;20063;-71
2021/06/10 01:37:59;;;;;;;5.07;4.50;;;16.70;84.10;;;;;;2040180;29;20042;-70
2021/06/10 01:39:05;;;;;;;4.70;4.30;;;16.70;84.30;;;;;;2040138;29;20038;-71
2021/06/10 01:40:07;;;;;;;5.90;4.43;;;16.70;84.30;;;;;;2039982;29;20090;-70
2021/06/10 01:41:10;;;;;;;5.65;4.45;;;16.70;84.30;;;;;;2040005;29;20042;-70
2021/06/10 01:42:12;;;;;;;5.93;4.25;;;16.60;84.30;;;;;;2039938;29;20038;-70
2021/06/10 01:43:14;;;;;;;5.47;3.97;;;16.60;84.20;;;;;;2040052;29;20036;-70
2021/06/10 01:44:16;;;;;;;5.63;4.60;;;16.60;84.30;;;;;;2039555;29;20016;-70
2021/06/10 01:45:17;;;;;;;5.13;4.35;;;16.60;84.30;;;;;;2038979;29;20527;-70
2021/06/10 01:46:23;;;;;;;6.05;4.70;;;16.60;84.50;;;;;;2031676;29;20040;-70
2021/06/10 01:47:25;;;;;;;5.93;5.18;;;16.60;84.50;;;;;;2032518;29;20028;-70
2021/06/10 01:48:27;;;;;;;5.55;5.00;;;16.60;84.70;;;;;;2039654;29;20027;-70
2021/06/10 01:49:28;;;;;;;5.25;4.70;;;16.60;84.70;;;;;;2040402;29;20042;-71
2021/06/10 01:50:30;;;;;;;5.90;5.20;;;16.60;84.70;;;;;;2047923;29;20020;-70
2021/06/10 01:51:32;;;;;;;5.32;4.72;;;16.60;84.60;;;;;;2040040;29;20034;-70
2021/06/10 01:52:33;;;;;;;6.32;4.90;;;16.50;84.60;;;;;;2039712;29;20594;-71
2021/06/10 01:53:38;;;;;;;5.45;4.70;;;16.60;84.70;;;;;;2040430;29;20028;-71
2021/06/10 01:54:40;;;;;;;5.00;4.50;;;16.50;84.70;;;;;;2039682;29;20023;-71
2021/06/10 01:55:43;;;;;;;6.10;4.88;;;16.50;84.90;;;;;;2040328;29;20040;-71
2021/06/10 01:56:45;;;;;;;5.22;4.60;;;16.50;84.90;;;;;;2031859;29;20036;-70
2021/06/10 01:57:46;;;;;;;5.35;4.85;;;16.50;85.10;;;;;;2031805;29;20032;-71
2021/06/10 01:58:48;;;;;;;5.25;4.45;;;16.50;84.80;;;;;;2039894;29;20051;-70
2021/06/10 01:59:50;;;;;;;5.25;4.70;;;16.50;84.90;;;;;;2039742;29;20788;-71
2021/06/10 02:00:52;;;;;;;5.22;4.68;;;16.50;85.00;;;;;;2039645;29;20032;-71
2021/06/10 02:01:54;;;;;;;5.13;4.63;;;16.40;85.00;;;;;;2039695;29;20027;-70
2021/06/10 02:02:56;;;;;;;5.57;4.75;;;16.40;85.00;;;;;;2039859;29;20043;-71
2021/06/10 02:04:02;;;;;;;7.53;4.30;;;16.40;85.10;;;;;;2039944;29;20547;-71
2021/06/10 02:05:08;;;;;;;4.63;4.20;;;16.40;85.10;;;;;;2039106;29;20028;-70
2021/06/10 02:06:10;;;;;;;4.95;4.45;;;16.40;85.30;;;;;;2040016;29;20032;-70
2021/06/10 02:07:11;;;;;;;5.57;4.55;;;16.40;85.40;;;;;;2039636;29;20036;-70
2021/06/10 02:08:15;;;;;;;5.45;4.38;;;16.40;85.50;;;;;;2040221;29;20023;-70
2021/06/10 02:09:16;;;;;;;5.88;4.60;;;16.40;85.70;;;;;;2040406;29;20042;-70
2021/06/10 02:10:22;;;;;;;5.20;4.70;;;16.40;85.70;;;;;;2040995;29;20091;-70
2021/06/10 02:11:24;;;;;;;5.20;4.60;;;16.40;85.80;;;;;;2039718;29;20063;-70
2021/06/10 02:12:25;;;;;;;5.22;4.72;;;16.30;85.60;;;;;;2040149;29;20020;-70
2021/06/10 02:13:28;;;;;;;6.10;4.90;;;16.30;85.70;;;;;;2039943;29;20032;-70
2021/06/10 02:14:30;;;;;;;5.00;4.20;;;16.30;85.80;;;;;;2043601;29;20046;-70
2021/06/10 02:15:31;;;;;;;5.43;4.93;;;16.30;86.20;;;;;;2031871;29;20091;-70
2021/06/10 02:16:38;;;;;;;5.13;4.60;;;16.30;86.00;;;;;;2040061;29;20028;-69
2021/06/10 02:17:39;;;;;;;5.68;4.60;;;16.30;86.00;;;;;;2040253;29;20026;-70
2021/06/10 02:18:41;;;;;;;5.32;4.57;;;16.30;86.10;;;;;;2040290;29;20792;-70
2021/06/10 02:19:42;;;;;;;6.22;4.82;;;16.30;86.10;;;;;;2047729;29;20019;-70
2021/06/10 02:20:46;;;;;;;7.30;4.90;;;16.30;86.10;;;;;;2040655;29;20614;-70
2021/06/10 02:21:46;;;;;;;5.10;4.70;;;16.20;86.00;;;;;;2040115;29;20047;-70
2021/06/10 02:22:48;;;;;;;6.07;5.03;;;16.20;86.00;;;;;;2040021;29;20396;-70
2021/06/10 02:23:49;;;;;;;5.57;4.78;;;16.20;86.10;;;;;;2040546;29;20039;-70
2021/06/10 02:24:52;;;;;;;5.03;4.32;;;16.20;86.30;;;;;;2031171;29;20032;-70
2021/06/10 02:25:53;;;;;;;6.28;4.80;;;16.20;86.30;;;;;;2035613;29;20032;-70
2021/06/10 02:26:53;;;;;;;5.18;4.65;;;16.20;86.30;;;;;;2032037;29;20035;-70
2021/06/10 02:27:54;;;;;;;4.75;4.30;;;16.20;86.30;;;;;;2031267;29;20478;-70
2021/06/10 02:28:54;;;;;;;5.78;4.47;;;16.20;86.30;;;;;;2039293;29;20055;-69
2021/06/10 02:29:55;;;;;;;5.40;4.57;;;16.20;86.30;;;;;;2039383;29;20023;-70
2021/06/10 02:30:56;;;;;;;5.00;4.50;;;16.20;86.50;;;;;;2031628;29;20076;-70
2021/06/10 02:31:56;;;;;;;4.90;4.40;;;16.10;86.60;;;;;;2040451;29;20030;-70
2021/06/10 02:32:57;;;;;;;5.28;4.70;;;16.10;86.70;;;;;;2040569;29;20039;-70
2021/06/10 02:33:58;;;;;;;4.93;4.43;;;16.10;86.70;;;;;;2040591;29;20094;-70
2021/06/10 02:35:02;;;;;;;5.25;4.70;;;16.10;86.80;;;;;;2039689;29;20035;-70
2021/06/10 02:36:05;;;;;;;5.00;4.53;;;16.10;86.90;;;;;;2040908;29;20404;-70
2021/06/10 02:37:07;;;;;;;6.22;4.70;;;16.10;86.90;;;;;;2041955;29;20423;-70
2021/06/10 02:38:11;;;;;;;5.20;4.47;;;16.10;86.90;;;;;;2041686;29;20031;-70
2021/06/10 02:39:16;;;;;;;6.57;5.00;;;16.10;86.90;;;;;;2041559;29;20038;-70
2021/06/10 02:40:31;;;;;;;5.38;4.72;;;16.10;86.80;;;;;;2040671;29;20375;-70
2021/06/10 02:41:35;;;;;;;5.22;4.60;;;16.10;86.80;;;;;;2031076;29;20396;-70
2021/06/10 02:42:38;;;;;;;6.85;4.70;;;16.10;86.90;;;;;;2030735;29;20451;-69
2021/06/10 02:43:39;;;;;;;4.63;4.22;;;16.10;86.90;;;;;;2041248;29;20735;-69
2021/06/10 02:44:43;;;;;;;5.45;4.60;;;16.10;86.90;;;;;;2041656;29;20023;-70
2021/06/10 02:45:47;;;;;;;4.53;4.13;;;16.10;86.90;;;;;;2041391;29;20035;-69
2021/06/10 02:46:47;;;;;;;5.90;4.65;;;16.10;86.90;;;;;;2047691;29;20200;-70
2021/06/10 02:47:50;;;;;;;6.05;4.65;;;16.10;87.00;;;;;;2048958;29;20027;-70
2021/06/10 02:48:53;;;;;;;4.97;4.40;;;16.10;87.10;;;;;;2041067;29;20042;-70
2021/06/10 02:49:54;;;;;;;6.10;4.38;;;16.10;87.10;;;;;;2040537;29;20558;-70
2021/06/10 02:50:56;;;;;;;5.10;4.60;;;16.10;87.00;;;;;;2040441;29;20051;-70
2021/06/10 02:51:57;;;;;;;5.28;4.75;;;16.10;87.10;;;;;;2041112;29;20063;-70
2021/06/10 02:52:59;;;;;;;6.72;4.68;;;16.10;87.30;;;;;;2041376;29;20035;-70
2021/06/10 02:54:02;;;;;;;5.47;4.80;;;16.10;87.30;;;;;;2041792;29;20019;-70
2021/06/10 02:55:04;;;;;;;5.30;4.80;;;16.10;87.30;;;;;;2041589;29;20032;-70
2021/06/10 02:56:07;;;;;;;5.88;5.05;;;16.00;87.30;;;;;;2041557;29;20039;-70
2021/06/10 02:57:10;;;;;;;4.93;4.47;;;16.00;87.10;;;;;;2041095;29;20030;-70
2021/06/10 02:58:15;;;;;;;5.15;4.65;;;16.00;87.20;;;;;;2040911;29;20040;-70
2021/06/10 02:59:18;;;;;;;5.65;4.72;;;16.00;87.30;;;;;;2042634;29;20071;-70
2021/06/10 03:00:22;;;;;;;5.15;4.65;;;16.00;87.50;;;;;;2047872;29;20383;-69
2021/06/10 03:01:23;;;;;;;5.55;4.93;;;16.00;87.40;;;;;;2040713;29;20028;-69
2021/06/10 03:02:24;;;;;;;5.03;4.53;;;16.00;87.50;;;;;;2040341;29;20044;-70
2021/06/10 03:03:26;;;;;;;5.68;4.88;;;16.00;87.40;;;;;;2032435;29;20092;-70
2021/06/10 03:04:28;;;;;;;5.38;4.75;;;16.00;87.60;;;;;;2024624;29;20032;-70
2021/06/10 03:05:30;;;;;;;7.30;5.18;;;16.00;87.50;;;;;;2032297;29;20032;-70
2021/06/10 03:06:32;;;;;;;5.93;4.45;;;16.00;87.50;;;;;;2040479;29;20028;-69
2021/06/10 03:07:36;;;;;;;6.53;4.97;;;16.00;87.50;;;;;;2041201;29;20039;-70
2021/06/10 03:08:37;;;;;;;6.03;5.00;;;16.00;87.40;;;;;;2041046;29;20495;-69
2021/06/10 03:09:40;;;;;;;5.45;4.93;;;16.00;87.40;;;;;;2040617;29;20130;-70
2021/06/10 03:10:45;;;;;;;7.80;5.10;;;16.00;87.50;;;;;;2032527;29;20020;-69
2021/06/10 03:11:47;;;;;;;5.35;4.80;;;16.00;87.10;;;;;;2033247;29;20020;-70
2021/06/10 03:12:48;;;;;;;5.30;4.80;;;16.00;87.20;;;;;;2040904;29;20019;-69
2021/06/10 03:13:50;;;;;;;7.18;4.90;;;16.00;87.10;;;;;;2040761;29;20039;-69
2021/06/10 03:14:52;;;;;;;5.65;4.70;;;16.00;87.10;;;;;;2039943;29;20023;-69
2021/06/10 03:15:53;;;;;;;5.32;4.82;;;16.10;87.10;;;;;;2040915;29;20035;-70
2021/06/10 03:16:55;;;;;;;5.47;4.97;;;16.10;86.90;;;;;;2040879;29;20042;-69
2021/06/10 03:17:58;;;;;;;5.68;4.65;;;16.10;86.90;;;;;;2040266;29;20031;-70
2021/06/10 03:18:59;;;;;;;5.45;4.80;;;16.10;86.80;;;;;;2040286;29;20059;-70
2021/06/10 03:20:01;;;;;;;6.57;5.00;;;16.10;86.70;;;;;;2040323;29;20156;-70
2021/06/10 03:21:02;;;;;;;5.38;4.70;;;16.10;86.40;;;;;;2040103;29;20094;-70
2021/06/10 03:22:03;;;;;;;5.25;4.60;;;16.10;86.40;;;;;;2034021;29;20055;-70
2021/06/10 03:23:04;;;;;;;5.20;4.70;;;16.10;86.40;;;;;;2048860;29;20031;-70
2021/06/10 03:24:05;;;;;;;5.68;4.53;;;16.10;86.40;;;;;;2040104;29;20543;-70
2021/06/10 03:25:08;;;;;;;5.07;4.57;;;16.20;86.40;;;;;;2039757;29;20100;-71
2021/06/10 03:26:09;;;;;;;5.35;4.68;;;16.20;86.10;;;;;;2039437;29;20036;-70
2021/06/10 03:27:11;;;;;;;4.90;4.47;;;16.20;85.90;;;;;;2032229;29;20052;-70
2021/06/10 03:28:13;;;;;;;5.25;4.75;;;16.20;85.80;;;;;;2040181;29;20361;-70
2021/06/10 03:29:14;;;;;;;5.68;5.03;;;16.20;85.50;;;;;;2040327;29;20063;-70
2021/06/10 03:30:15;;;;;;;4.72;4.32;;;16.20;85.60;;;;;;2033168;29;20603;-70
2021/06/10 03:31:20;;;;;;;6.57;4.70;;;16.20;85.90;;;;;;2028085;29;20215;-70
2021/06/10 03:32:21;;;;;;;9.25;4.97;;;16.20;85.60;;;;;;2040395;29;20413;-71
2021/06/10 03:33:23;;;;;;;6.25;4.90;;;16.20;85.50;;;;;;2040773;29;20625;-71
2021/06/10 03:34:24;;;;;;;6.20;5.07;;;16.20;85.30;;;;;;2040758;29;20518;-70
2021/06/10 03:35:26;;;;;;;5.38;4.88;;;16.20;85.10;;;;;;2040115;29;20066;-70
2021/06/10 03:36:28;;;;;;;5.50;5.00;;;16.20;85.10;;;;;;2040943;29;20031;-70
2021/06/10 03:37:30;;;;;;;5.43;4.82;;;16.30;85.10;;;;;;2040037;29;20488;-70
2021/06/10 03:38:31;;;;;;;6.03;5.00;;;16.30;85.10;;;;;;2039819;29;20114;-70
2021/06/10 03:39:32;;;;;;;7.00;5.15;;;16.30;84.90;;;;;;2024452;29;20065;-70
2021/06/10 03:40:34;;;;;;;5.70;4.78;;;16.30;84.70;;;;;;2024591;29;20597;-70
2021/06/10 03:41:35;;;;;;;6.97;4.72;;;16.40;84.60;;;;;;2032507;29;20027;-70
2021/06/10 03:42:37;;;;;;;5.15;4.65;;;16.40;84.50;;;;;;2040237;29;20494;-70
2021/06/10 03:43:38;;;;;;;5.10;4.40;;;16.40;84.40;;;;;;2040043;29;20534;-70
2021/06/10 03:44:39;;;;;;;5.43;4.93;;;16.50;84.40;;;;;;2039329;29;20020;-70
2021/06/10 03:45:40;;;;;;;5.22;4.72;;;16.50;84.20;;;;;;2040096;29;20524;-70
2021/06/10 03:46:41;;;;;;;5.63;5.03;;;16.50;84.00;;;;;;2039833;29;20079;-70
2021/06/10 03:47:44;;;;;;;5.45;4.78;;;16.50;84.00;;;;;;2040744;29;20160;-70
2021/06/10 03:48:46;;;;;;;6.25;5.22;;;16.50;84.00;;;;;;2040799;29;20397;-70
2021/06/10 03:49:46;;;;;;;5.80;4.70;;;16.60;84.00;;;;;;2040560;29;20036;-70
2021/06/10 03:50:47;;;;;;;5.78;5.00;;;16.60;83.80;;;;;;2040582;29;20023;-70
2021/06/10 03:51:52;;;;;;;5.55;4.70;;;16.60;83.50;;;;;;2040666;29;20024;-70
2021/06/10 03:52:53;;;;;;;6.10;5.07;;;16.70;83.40;;;;;;2040492;29;20480;-70
2021/06/10 03:53:55;;;;;;;7.35;5.25;;;16.70;82.90;;;;;;2040205;29;20035;-70
2021/06/10 03:54:58;;;;;;;7.10;4.85;;;16.70;83.00;;;;;;2039309;29;20507;-70
2021/06/10 03:55:58;;;;;;;7.38;5.53;;;16.70;82.70;;;;;;2032418;29;20764;-70
2021/06/10 03:56:59;;;;;;;6.65;5.25;;;16.70;82.50;;;;;;2024384;29;20063;-70
2021/06/10 03:58:00;;;;;;;5.97;5.38;;;16.70;82.70;;;;;;2040692;29;20089;-70
2021/06/10 03:59:01;;;;;;;6.57;5.25;;;16.70;82.50;;;;;;2039860;29;20034;-69
2021/06/10 04:00:06;;;;;;;5.93;5.32;;;16.70;82.50;;;;;;2040872;29;20046;-69
2021/06/10 04:01:07;;;;;;;6.07;5.13;;;16.80;82.40;;;;;;2044082;29;20035;-69
2021/06/10 04:02:08;;;;;;;5.20;4.70;;;16.90;82.20;;;;;;2042918;29;20039;-69
2021/06/10 04:03:08;;;;;;;8.32;5.10;;;17.20;82.40;;;;;;2042300;29;20020;-70
2021/06/10 04:04:09;;;;;;;5.43;4.80;;;17.40;80.50;;;;;;2041651;29;20063;-70
2021/06/10 04:05:11;;;;;;;5.80;4.72;;;17.70;79.00;;;;;;2039681;29;20123;-70
2021/06/10 04:06:12;;;;;;;6.68;4.72;;;18.00;77.60;;;;;;2042402;29;20051;-70
2021/06/10 04:07:13;;;;;;;6.20;4.78;;;18.20;76.40;;;;;;2044347;29;20052;-70
2021/06/10 04:08:14;;;;;;;5.75;4.93;;;18.40;75.80;;;;;;2042082;29;20024;-71
2021/06/10 04:09:14;;;;;;;7.55;5.18;;;18.60;75.00;;;;;;2041538;29;20024;-71
2021/06/10 04:10:15;;;;;;;7.07;5.35;;;18.80;73.60;;;;;;2041542;29;20019;-70
2021/06/10 04:11:16;;;;;;;5.80;5.22;;;18.80;72.80;;;;;;2041692;29;20028;-70
2021/06/10 04:12:17;;;;;;;8.25;5.20;;;18.80;72.40;;;;;;2041933;29;20566;-70
2021/06/10 04:13:17;;;;;;;6.63;4.93;;;18.80;72.60;;;;;;2041221;29;20131;-70
2021/06/10 04:14:18;;;;;;;8.43;5.25;;;18.80;72.60;;;;;;2042342;29;20027;-70
2021/06/10 04:15:19;;;;;;;6.95;5.07;;;18.70;72.50;;;;;;2028109;29;20510;-70
2021/06/10 04:16:20;;;;;;;5.50;4.95;;;18.70;72.80;;;;;;2033166;29;20377;-70
2021/06/10 04:17:20;;;;;;;7.10;4.97;;;18.70;72.60;;;;;;2041886;29;20023;-70
2021/06/10 04:18:21;;;;;;;7.85;5.25;;;18.70;72.80;;;;;;2041154;29;20020;-71
2021/06/10 04:19:21;;;;;;;5.25;4.75;;;18.70;72.70;;;;;;2040681;29;20371;-70
2021/06/10 04:20:22;;;;;;;5.32;4.82;;;18.90;72.50;;;;;;2040293;29;20053;-71
2021/06/10 04:21:23;;;;;;;5.18;4.68;;;19.20;71.90;;;;;;2040451;29;20027;-70
2021/06/10 04:22:24;;;;;;;5.97;4.88;;;19.40;70.60;;;;;;2032456;29;20051;-72
2021/06/10 04:23:25;;;;;;;5.53;4.93;;;19.60;69.30;;;;;;2024517;29;20045;-71
2021/06/10 04:24:26;;;;;;;5.70;4.88;;;19.70;68.50;;;;;;2027856;29;20036;-70
2021/06/10 04:25:26;;;;;;;5.97;4.88;;;19.80;67.90;;;;;;2040949;29;20675;-71
2021/06/10 04:26:28;;;;;;;5.07;4.60;;;19.80;67.60;;;;;;2041542;29;20079;-70
2021/06/10 04:27:28;;;;;;;9.07;5.40;;;19.90;67.30;;;;;;2040815;29;20032;-72
2021/06/10 04:28:29;;;;;;;6.20;5.57;;;20.00;66.90;;;;;;2040761;29;20048;-71
2021/06/10 04:29:30;;;;;;;7.88;5.30;;;20.00;66.70;;;;;;2041007;29;20028;-70
2021/06/10 04:30:31;;;;;;;6.05;5.32;;;20.00;66.30;;;;;;2044283;29;20028;-71
2021/06/10 04:31:32;;;;;;;5.88;5.30;;;20.00;66.20;;;;;;2045152;29;20074;-71
2021/06/10 04:32:32;;;;;;;6.38;4.90;;;19.90;66.20;;;;;;2043432;29;20035;-71
2021/06/10 04:33:33;;;;;;;6.88;5.10;;;19.80;66.30;;;;;;2040705;29;20491;-71
2021/06/10 04:34:34;;;;;;;5.30;4.80;;;19.60;66.70;;;;;;2028669;29;20368;-70
2021/06/10 04:35:34;;;;;;;5.93;4.78;;;19.50;67.50;;;;;;2024359;29;20130;-71
2021/06/10 04:36:35;;;;;;;7.57;4.60;;;19.50;68.00;;;;;;2032136;29;20024;-71
2021/06/10 04:37:36;;;;;;;5.15;4.65;;;19.60;68.10;;;;;;2040105;29;20032;-70
2021/06/10 04:38:37;;;;;;;6.60;5.10;;;19.90;67.80;;;;;;2040137;29;20183;-70
2021/06/10 04:39:38;;;;;;;7.60;5.20;;;20.10;66.80;;;;;;2039817;29;20028;-71
2021/06/10 04:40:39;;;;;;;5.15;4.65;;;20.30;65.90;;;;;;2032196;29;20121;-72
2021/06/10 04:41:40;;;;;;;6.05;4.75;;;20.50;65.00;;;;;;2032298;29;20439;-70
2021/06/10 04:42:43;;;;;;;7.15;5.03;;;20.50;64.20;;;;;;2031934;29;20035;-73
2021/06/10 04:43:44;;;;;;;7.72;5.10;;;20.50;63.80;;;;;;2038665;29;20472;-70
2021/06/10 04:44:45;;;;;;;7.28;4.88;;;20.40;63.90;;;;;;2040770;29;20090;-71
2021/06/10 04:45:45;;;;;;;6.88;5.15;;;20.30;64.30;;;;;;2040080;29;20027;-71
2021/06/10 04:46:46;;;;;;;8.15;5.03;;;20.10;65.10;;;;;;2040181;29;20043;-71
2021/06/10 04:47:47;;;;;;;7.07;5.28;;;19.90;65.80;;;;;;2039809;29;20019;-71
2021/06/10 04:48:47;;;;;;;8.23;5.18;;;19.80;66.50;;;;;;2039963;29;20491;-71
2021/06/10 04:49:48;;;;;;;5.65;5.03;;;19.60;66.80;;;;;;2040584;29;20062;-71
2021/06/10 04:50:49;;;;;;;6.00;5.40;;;19.50;67.60;;;;;;2040088;29;20034;-71
2021/06/10 04:51:50;;;;;;;5.55;4.80;;;19.40;68.10;;;;;;2039627;29;20035;-71
2021/06/10 04:52:50;;;;;;;7.32;5.03;;;19.30;68.80;;;;;;2032023;29;20038;-71
2021/06/10 04:53:53;;;;;;;5.28;4.78;;;19.30;69.30;;;;;;2039270;29;20163;-71
2021/06/10 04:54:53;;;;;;;5.22;4.75;;;19.30;69.40;;;;;;2039247;29;20115;-71
2021/06/10 04:55:54;;;;;;;6.85;5.07;;;19.30;69.40;;;;;;2040239;29;20050;-71
2021/06/10 04:56:55;;;;;;;7.43;5.00;;;19.20;69.30;;;;;;2040207;29;20107;-72
2021/06/10 04:57:55;;;;;;;5.68;5.00;;;19.20;69.40;;;;;;2031573;29;20042;-71
2021/06/10 04:58:56;;;;;;;8.70;5.25;;;19.30;69.20;;;;;;2024459;29;20133;-71
2021/06/10 04:59:57;;;;;;;6.95;5.07;;;19.30;69.40;;;;;;2032095;29;20032;-71
2021/06/10 05:00:57;;;;;;;6.00;4.70;;;19.30;69.40;;;;;;2040071;29;20405;-71
2021/06/10 05:01:58;;;;;;;5.78;4.90;;;19.30;69.50;;;;;;2040213;29;20031;-71
2021/06/10 05:03:00;;;;;;;5.43;4.78;;;19.30;69.60;;;;;;2040068;29;20035;-70
2021/06/10 05:04:00;;;;;;;5.30;4.80;;;19.20;69.50;;;;;;2039381;29;20036;-71
2021/06/10 05:05:07;;;;;;;8.25;5.05;;;19.30;69.50;;;;;;2038774;29;20075;-71
2021/06/10 05:06:09;;;;;;;8.82;5.75;;;19.30;69.60;;;;;;2039646;29;20112;-71
2021/06/10 05:07:11;;;;;;;9.68;5.60;;;19.30;69.50;;;;;;2039507;29;20039;-71
2021/06/10 05:08:12;;;;;;;7.15;4.90;;;19.30;69.40;;;;;;2040047;29;20028;-71
2021/06/10 05:09:12;;;;;;;7.22;5.35;;;19.30;69.40;;;;;;2039931;29;20057;-71
2021/06/10 05:10:19;;;;;;;9.25;5.03;;;19.40;69.40;;;;;;2040658;29;20468;-71
2021/06/10 05:11:19;;;;;;;5.90;5.30;;;19.40;69.00;;;;;;2040640;29;20071;-71
2021/06/10 05:12:20;;;;;;;6.65;5.07;;;19.50;68.60;;;;;;2032259;29;20453;-71
2021/06/10 05:13:21;;;;;;;5.30;4.80;;;19.60;68.00;;;;;;2024929;29;20060;-71
2021/06/10 05:14:21;;;;;;;5.60;4.97;;;19.60;67.80;;;;;;2031720;29;20579;-71
2021/06/10 05:15:22;;;;;;;9.15;5.80;;;19.60;67.80;;;;;;2042577;29;20507;-71
2021/06/10 05:16:27;;;;;;;7.78;5.55;;;19.60;68.90;;;;;;2031905;29;20032;-71
2021/06/10 05:17:30;;;;;;;10.98;5.50;;;19.60;68.20;;;;;;2032426;29;20035;-71
2021/06/10 05:18:31;;;;;;;8.15;5.60;;;19.60;68.20;;;;;;2031546;29;20456;-71
2021/06/10 05:19:34;;;;;;;6.10;4.88;;;19.60;68.10;;;;;;2032027;29;20024;-71
2021/06/10 05:20:35;;;;;;;7.30;5.35;;;19.70;68.10;;;;;;2039623;29;20479;-71
2021/06/10 05:21:36;;;;;;;5.57;4.60;;;19.90;67.80;;;;;;2039715;29;20028;-71
2021/06/10 05:22:37;;;;;;;6.22;4.60;;;20.10;67.20;;;;;;2039730;29;20382;-71
2021/06/10 05:23:38;;;;;;;6.00;4.55;;;20.50;66.20;;;;;;2040160;29;20038;-71
2021/06/10 05:24:40;;;;;;;5.10;4.60;;;20.80;64.70;;;;;;2039247;29;20380;-71
2021/06/10 05:25:41;;;;;;;7.75;5.22;;;21.10;63.40;;;;;;2040236;29;20032;-71